Saint Helena, CA (94574)

12:45 PM PDT on July 24, 2016 (GMT -0700)
St Helena - Meadowood Ln | | Change Station

Elev 276 ft 38.52 °N, 122.46 °W | Updated 7 minutes ago

Clear
Clear
86.7 °F
Feels Like 86 °F
N
1.0
Wind Variable Wind from South
Gusts 3.0 mph

Today
High -- | Low -- °F
--% Chance of Precip.
Yesterday
High -- | Low -- °F
Precip. -- in
Pressure 29.82 in
Visibility 10.0 miles
Clouds Clear
Heat Index 86 °F
Dew Point 60 °F
Humidity 40%
Rainfall 0.00 in
Snow Depth Not available.
6:05 AM 8:26 PM
Waning Gibbous, 73% visible
METAR KSTS 241853Z VRB04KT 10SM CLR 29/12 A2984 RMK AO2 SLP096 T02890117
Pressure 29.82 in
Visibility 10.0 miles
Clouds Clear
Heat Index 86 °F
Dew Point 60 °F
Humidity 40%
Rainfall 0.00 in
Snow Depth Not available.
6:05 AM 8:26 PM
Waning Gibbous, 73% visible
METAR KSTS 241853Z VRB04KT 10SM CLR 29/12 A2984 RMK AO2 SLP096 T02890117

10-Day Weather Forecast

Almanac

Astronomy

Jul. 24, 2016 Rise Set
Actual Time
Civil Twilight
Nautical Twilight
Astronomical Twilight
Moon
Length of Visible Light
Length of Day
Tomorrow will be .
, % of the Moon is Illuminated

Today's Extremes

State Highs State Lows

Community

WunderPhotos

Upload Photos

1,927,176 photos uploaded!

WunderBlog® & News

Nearby

Air Quality

  Air Quality AQ Index Pollutant
Not available.

Snow Depth

Station Depth Elevation

Earthquake Activity

City Distance Mag. Time & Date
Minimum magnitude displayed is 2.5.

Coastal Water Temperatures

Place Temperature

Stations

Nearby Weather Stations

Station Location Temp. Windchill Dew Point Humidity Wind Precip. Elev Updated Type
                   

Watches & Warnings

There are currently no watches in effect.